Time;durP1;ratioP1;P1;durP2;ratioP2;P2;SDS_P1;SDS_P2;PMS_P1;PMS_P2;Temp;Humidity;BMP_temperature;BMP_pressure;BME280_temperature;BME280_humidity;BME280_pressure;Samples;Min_cycle;Max_cycle;Signal;HPM_P1;HPM_P2
2021/08/09 00:02:03;;;;;;;9.07;2.72;;;15.80;78.70;;;;;;5090968;28;20055;-89
2021/08/09 00:04:30;;;;;;;6.88;2.30;;;15.80;78.70;;;;;;5090984;28;20051;-90
2021/08/09 00:06:57;;;;;;;11.18;2.15;;;15.80;78.70;;;;;;5090841;28;20093;-90
2021/08/09 00:09:24;;;;;;;7.75;2.10;;;15.80;78.70;;;;;;5090574;28;20108;-89
2021/08/09 00:11:51;;;;;;;13.45;2.30;;;15.80;78.70;;;;;;5091999;28;20093;-88
2021/08/09 00:14:18;;;;;;;7.93;2.53;;;15.90;78.70;;;;;;5091899;28;20044;-88
2021/08/09 00:16:45;;;;;;;6.35;2.15;;;15.80;78.70;;;;;;5090704;28;20073;-88
2021/08/09 00:19:11;;;;;;;7.00;2.35;;;15.90;78.70;;;;;;5090707;28;20394;-88
2021/08/09 00:21:38;;;;;;;6.68;2.17;;;15.80;78.70;;;;;;5090663;28;20048;-87
2021/08/09 00:24:05;;;;;;;10.25;2.58;;;15.90;78.70;;;;;;5090326;28;20071;-89
2021/08/09 00:26:34;;;;;;;9.32;2.67;;;15.90;78.70;;;;;;5092774;28;20447;-89
2021/08/09 00:29:03;;;;;;;9.88;2.40;;;15.90;78.70;;;;;;5090494;28;20104;-88
2021/08/09 00:31:30;;;;;;;11.65;2.35;;;15.90;78.70;;;;;;5089180;28;20044;-89
2021/08/09 00:33:58;;;;;;;8.38;2.50;;;15.90;78.70;;;;;;5090469;28;20048;-88
2021/08/09 00:36:24;;;;;;;6.72;2.15;;;15.90;78.70;;;;;;5089099;28;20497;-88
2021/08/09 00:38:51;;;;;;;5.60;2.03;;;15.90;78.80;;;;;;5091536;28;20505;-88
2021/08/09 00:41:18;;;;;;;7.90;2.38;;;15.90;78.80;;;;;;5091505;28;20052;-89
2021/08/09 00:43:45;;;;;;;9.48;2.20;;;15.90;78.90;;;;;;5090513;28;20112;-88
2021/08/09 00:46:12;;;;;;;6.15;2.05;;;15.90;78.90;;;;;;5090406;28;20048;-88
2021/08/09 00:48:39;;;;;;;7.72;2.25;;;15.90;78.90;;;;;;5090443;28;20067;-87
2021/08/09 00:51:08;;;;;;;5.38;1.95;;;15.80;78.90;;;;;;5090283;28;20052;-89
2021/08/09 00:53:35;;;;;;;6.90;1.98;;;15.80;79.00;;;;;;5091163;28;20048;-89
2021/08/09 00:56:04;;;;;;;9.48;2.72;;;15.80;79.00;;;;;;5090073;28;20070;-88
2021/08/09 00:58:31;;;;;;;4.88;1.95;;;15.80;79.10;;;;;;5090145;28;20090;-89
2021/08/09 01:00:58;;;;;;;7.40;2.47;;;15.80;79.10;;;;;;5090169;28;20479;-89
2021/08/09 01:03:26;;;;;;;6.85;2.10;;;15.80;79.30;;;;;;5090188;28;20569;-89
2021/08/09 01:05:52;;;;;;;7.35;2.38;;;15.80;79.20;;;;;;5091245;28;20723;-90
2021/08/09 01:08:22;;;;;;;8.27;2.40;;;15.80;79.30;;;;;;5091143;28;20383;-89
2021/08/09 01:11:02;;;;;;;5.93;2.13;;;15.90;79.30;;;;;;5089960;28;20052;-89
2021/08/09 01:13:50;;;;;;;9.20;2.42;;;15.90;79.20;;;;;;5090070;28;20105;-88
2021/08/09 01:16:19;;;;;;;7.85;2.15;;;15.80;79.30;;;;;;5088577;28;20131;-88
2021/08/09 01:18:47;;;;;;;5.07;2.03;;;15.80;79.30;;;;;;5089084;28;20054;-89
2021/08/09 01:21:17;;;;;;;8.15;2.45;;;15.80;79.30;;;;;;5073841;28;20848;-87
2021/08/09 01:24:14;;;;;;;8.73;2.20;;;15.80;79.30;;;;;;5088221;28;20089;-87
2021/08/09 01:26:56;;;;;;;7.82;2.05;;;15.80;79.30;;;;;;5088125;28;20055;-87
2021/08/09 01:29:43;;;;;;;9.27;2.60;;;15.80;79.40;;;;;;5091649;28;20048;-88
2021/08/09 01:32:11;;;;;;;11.60;2.40;;;15.80;79.40;;;;;;5087315;28;20048;-89
2021/08/09 01:34:38;;;;;;;9.40;2.70;;;15.80;79.50;;;;;;5089862;28;20036;-88
2021/08/09 01:37:06;;;;;;;6.57;2.20;;;15.70;79.50;;;;;;5089555;28;20052;-88
2021/08/09 01:39:33;;;;;;;7.80;2.40;;;15.70;79.60;;;;;;5089977;28;20080;-89
2021/08/09 01:42:01;;;;;;;6.50;2.03;;;15.70;79.60;;;;;;5089643;28;20106;-88
2021/08/09 01:44:28;;;;;;;6.97;2.17;;;15.70;79.60;;;;;;5092101;28;20048;-89
2021/08/09 01:46:55;;;;;;;7.93;2.00;;;15.70;79.60;;;;;;5089683;28;20077;-88
2021/08/09 01:49:22;;;;;;;6.40;1.90;;;15.70;79.60;;;;;;5088653;28;20464;-89
2021/08/09 01:51:50;;;;;;;6.63;1.95;;;15.70;79.60;;;;;;5089189;28;20506;-88
2021/08/09 01:54:18;;;;;;;6.05;1.90;;;15.60;79.60;;;;;;5088295;28;20051;-88
2021/08/09 01:56:45;;;;;;;7.10;2.08;;;15.60;79.60;;;;;;5091793;28;20051;-86
2021/08/09 01:59:11;;;;;;;9.43;1.95;;;15.60;79.60;;;;;;5087415;28;20106;-89
2021/08/09 02:01:40;;;;;;;7.63;2.03;;;15.60;79.60;;;;;;5089525;28;20459;-88
2021/08/09 02:04:08;;;;;;;8.85;2.53;;;15.60;79.60;;;;;;5089646;28;20173;-90
2021/08/09 02:06:35;;;;;;;7.85;2.00;;;15.60;79.60;;;;;;5089516;28;20044;-89
2021/08/09 02:09:01;;;;;;;6.80;1.98;;;15.60;79.60;;;;;;5094174;28;20093;-87
2021/08/09 02:12:01;;;;;;;8.57;2.08;;;15.60;79.60;;;;;;5093379;28;20386;-88
2021/08/09 02:14:33;;;;;;;6.28;1.90;;;15.60;79.60;;;;;;5081316;28;20040;-87
2021/08/09 02:17:10;;;;;;;5.45;2.08;;;15.60;79.50;;;;;;5092990;28;20466;-87
2021/08/09 02:19:43;;;;;;;5.57;1.67;;;15.50;79.50;;;;;;5092552;28;20455;-88
2021/08/09 02:22:16;;;;;;;4.05;1.73;;;15.50;79.50;;;;;;5092949;28;20044;-88
2021/08/09 02:24:58;;;;;;;6.75;1.85;;;15.50;79.50;;;;;;5093096;28;20383;-87
2021/08/09 02:27:47;;;;;;;6.70;1.88;;;15.50;79.50;;;;;;5077296;28;20048;-90
2021/08/09 02:30:17;;;;;;;5.90;1.95;;;15.50;79.50;;;;;;5074158;28;20102;-90
2021/08/09 02:32:45;;;;;;;6.53;1.83;;;15.40;79.40;;;;;;5090959;28;20052;-89
2021/08/09 02:35:17;;;;;;;3.65;1.60;;;15.50;79.40;;;;;;5093116;28;20062;-90
2021/08/09 02:37:45;;;;;;;5.22;1.90;;;15.40;79.40;;;;;;5092574;28;20051;-89
2021/08/09 02:40:14;;;;;;;5.03;1.80;;;15.40;79.40;;;;;;5092587;28;20468;-89
2021/08/09 02:42:41;;;;;;;6.10;1.98;;;15.40;79.50;;;;;;5092562;28;20044;-87
2021/08/09 02:45:08;;;;;;;6.65;1.80;;;15.40;79.50;;;;;;5092709;28;20052;-84
2021/08/09 02:47:38;;;;;;;5.90;2.00;;;15.30;79.50;;;;;;5094677;28;20052;-89
2021/08/09 02:50:08;;;;;;;9.48;2.10;;;15.30;79.50;;;;;;5090741;28;20052;-89
2021/08/09 02:52:37;;;;;;;5.15;1.73;;;15.30;79.50;;;;;;5092204;28;20101;-88
2021/08/09 02:55:06;;;;;;;5.78;2.10;;;15.30;79.60;;;;;;5092256;28;20089;-88
2021/08/09 02:57:33;;;;;;;8.43;2.08;;;15.30;79.60;;;;;;5092425;28;20047;-88
2021/08/09 03:00:00;;;;;;;4.28;1.73;;;15.30;79.60;;;;;;5092348;28;20085;-90
2021/08/09 03:02:29;;;;;;;7.55;2.22;;;15.20;79.60;;;;;;5092142;28;20056;-88
2021/08/09 03:04:57;;;;;;;8.75;2.08;;;15.30;79.60;;;;;;5092094;28;20109;-89
2021/08/09 03:07:25;;;;;;;10.48;2.05;;;15.20;79.60;;;;;;5092017;28;20074;-87
2021/08/09 03:09:52;;;;;;;5.63;1.80;;;15.20;79.60;;;;;;5091939;28;20048;-87
2021/08/09 03:12:20;;;;;;;6.10;1.98;;;15.20;79.60;;;;;;5090649;28;20048;-88
2021/08/09 03:14:52;;;;;;;5.00;1.98;;;15.20;79.70;;;;;;5093973;28;20048;-89
2021/08/09 03:17:19;;;;;;;4.50;1.75;;;15.10;79.70;;;;;;5092681;28;20573;-88
2021/08/09 03:19:46;;;;;;;5.63;2.20;;;15.10;79.70;;;;;;5091774;28;20044;-89
2021/08/09 03:22:13;;;;;;;6.07;1.88;;;15.10;79.70;;;;;;5091779;28;20112;-88
2021/08/09 03:24:40;;;;;;;6.45;2.00;;;15.10;79.80;;;;;;5091748;28;20047;-89
2021/08/09 03:27:06;;;;;;;7.13;2.10;;;15.10;79.80;;;;;;5091797;28;20052;-88
2021/08/09 03:29:33;;;;;;;6.95;1.90;;;15.10;79.90;;;;;;5092720;28;20498;-86
2021/08/09 03:32:00;;;;;;;7.40;2.17;;;15.00;80.00;;;;;;5091159;28;20047;-88
2021/08/09 03:34:27;;;;;;;7.30;2.22;;;15.00;80.00;;;;;;5091450;28;20101;-88
2021/08/09 03:36:54;;;;;;;7.43;2.17;;;15.00;80.10;;;;;;5091536;28;20101;-88
2021/08/09 03:39:21;;;;;;;9.57;2.08;;;14.90;80.10;;;;;;5091464;28;20468;-86
2021/08/09 03:41:48;;;;;;;11.60;2.30;;;14.90;80.10;;;;;;5092603;28;20121;-86
2021/08/09 03:44:15;;;;;;;6.10;1.92;;;14.90;80.20;;;;;;5092350;28;20040;-86
2021/08/09 03:46:42;;;;;;;7.85;2.05;;;14.90;80.20;;;;;;5090924;28;20173;-88
2021/08/09 03:49:09;;;;;;;7.03;1.90;;;14.90;80.30;;;;;;5091120;28;20040;-86
2021/08/09 03:51:37;;;;;;;5.68;1.92;;;14.90;80.30;;;;;;5089743;28;20052;-86
2021/08/09 03:54:05;;;;;;;5.15;1.80;;;14.90;80.40;;;;;;5091211;28;20051;-89
2021/08/09 03:56:33;;;;;;;4.20;1.90;;;14.90;80.50;;;;;;5093292;28;20081;-88
2021/08/09 03:59:00;;;;;;;4.85;1.70;;;14.90;80.50;;;;;;5091023;28;20097;-89
2021/08/09 04:01:27;;;;;;;7.22;1.98;;;14.90;80.50;;;;;;5090678;28;20052;-89
2021/08/09 04:03:56;;;;;;;6.25;1.85;;;14.90;80.50;;;;;;5090850;28;20047;-86
2021/08/09 04:06:22;;;;;;;7.80;2.25;;;14.80;80.60;;;;;;5089610;28;20094;-88
2021/08/09 04:08:49;;;;;;;9.73;2.38;;;14.80;80.60;;;;;;5092402;28;20044;-85
2021/08/09 04:11:17;;;;;;;8.35;2.22;;;14.80;80.70;;;;;;5091490;28;20505;-88
2021/08/09 04:13:43;;;;;;;9.48;2.35;;;14.80;80.70;;;;;;5090847;28;20040;-86
2021/08/09 04:16:10;;;;;;;8.70;2.40;;;14.80;80.70;;;;;;5090398;28;20044;-86
2021/08/09 04:18:39;;;;;;;6.97;2.28;;;14.80;80.80;;;;;;5090713;28;20051;-88
2021/08/09 04:21:06;;;;;;;8.50;2.22;;;14.80;80.80;;;;;;5090742;28;20056;-89
2021/08/09 04:23:33;;;;;;;7.63;2.13;;;14.70;80.80;;;;;;5092804;28;20040;-88
2021/08/09 04:26:00;;;;;;;7.38;1.92;;;14.70;80.90;;;;;;5090594;28;20047;-88
2021/08/09 04:28:26;;;;;;;7.93;2.13;;;14.70;80.90;;;;;;5090516;28;20463;-87
2021/08/09 04:30:53;;;;;;;5.85;1.80;;;14.80;81.00;;;;;;5088258;28;20070;-87
2021/08/09 04:33:20;;;;;;;6.93;2.30;;;14.70;81.00;;;;;;5090506;28;20086;-87
2021/08/09 04:35:56;;;;;;;7.60;2.10;;;14.70;81.00;;;;;;5091532;28;20048;-88
2021/08/09 04:38:23;;;;;;;8.98;2.42;;;14.70;81.00;;;;;;5092361;28;20098;-87
2021/08/09 04:40:50;;;;;;;7.40;1.90;;;14.70;81.00;;;;;;5090380;28;20051;-86
2021/08/09 04:43:16;;;;;;;8.75;1.80;;;14.70;81.00;;;;;;5090362;28;20079;-88
2021/08/09 04:45:44;;;;;;;7.15;2.15;;;14.70;81.00;;;;;;5088870;28;20459;-86
2021/08/09 04:48:10;;;;;;;6.47;2.13;;;14.70;81.10;;;;;;5090578;28;20093;-89
2021/08/09 04:50:39;;;;;;;7.43;2.25;;;14.70;81.10;;;;;;5092422;28;20056;-88
2021/08/09 04:53:08;;;;;;;11.60;1.70;;;14.70;81.20;;;;;;5090080;28;20063;-88
2021/08/09 04:55:35;;;;;;;10.18;2.25;;;14.70;81.10;;;;;;5090287;28;20047;-84
2021/08/09 04:58:04;;;;;;;6.53;1.95;;;14.70;81.20;;;;;;5090194;28;20055;-86
2021/08/09 05:00:31;;;;;;;6.03;2.17;;;14.80;81.20;;;;;;5089890;28;20474;-88
2021/08/09 05:02:59;;;;;;;5.95;1.88;;;14.80;81.30;;;;;;5090527;28;20081;-87
2021/08/09 05:05:26;;;;;;;10.07;2.22;;;14.80;81.30;;;;;;5090065;28;20051;-85
2021/08/09 05:07:57;;;;;;;8.65;2.42;;;14.80;81.30;;;;;;5088911;28;20117;-88
2021/08/09 05:10:25;;;;;;;8.98;1.90;;;14.80;81.30;;;;;;5088535;28;20043;-91
2021/08/09 05:12:53;;;;;;;4.50;1.67;;;14.80;81.30;;;;;;5090071;28;20547;-89
2021/08/09 05:15:23;;;;;;;7.28;2.28;;;14.80;81.40;;;;;;5090018;28;20418;-88
2021/08/09 05:17:50;;;;;;;6.72;2.13;;;14.80;81.40;;;;;;5091362;28;20131;-88
2021/08/09 05:20:18;;;;;;;9.43;2.47;;;14.80;81.40;;;;;;5088735;28;20044;-89
2021/08/09 05:22:45;;;;;;;10.65;2.42;;;14.80;81.40;;;;;;5090002;28;20617;-88
2021/08/09 05:25:12;;;;;;;8.77;1.85;;;14.80;81.40;;;;;;5089926;28;20040;-87
2021/08/09 05:27:40;;;;;;;5.75;1.98;;;14.80;81.40;;;;;;5089581;28;20077;-89
2021/08/09 05:30:09;;;;;;;7.20;2.03;;;14.80;81.40;;;;;;5089988;28;20067;-88
2021/08/09 05:32:37;;;;;;;4.03;2.08;;;14.80;81.40;;;;;;5091950;28;20055;-85
2021/08/09 05:35:06;;;;;;;7.85;2.42;;;14.80;81.40;;;;;;5089894;28;20101;-86
2021/08/09 05:37:34;;;;;;;7.60;2.00;;;14.80;81.40;;;;;;5089846;28;20563;-87
2021/08/09 05:40:03;;;;;;;10.43;2.20;;;14.90;81.40;;;;;;5089709;28;20074;-87
2021/08/09 05:42:30;;;;;;;6.85;1.90;;;14.80;81.40;;;;;;5091293;28;20060;-88
2021/08/09 05:44:57;;;;;;;7.78;2.00;;;14.80;81.40;;;;;;5094443;28;20048;-88
2021/08/09 05:47:24;;;;;;;5.43;2.00;;;14.90;81.40;;;;;;5095522;28;20060;-87
2021/08/09 05:49:51;;;;;;;6.78;2.08;;;14.90;81.40;;;;;;5092115;28;20052;-88
2021/08/09 05:52:25;;;;;;;5.63;2.17;;;14.90;81.30;;;;;;5092070;28;20048;-87
2021/08/09 05:54:52;;;;;;;7.20;2.28;;;14.90;81.30;;;;;;5092455;28;20048;-90
2021/08/09 05:57:20;;;;;;;8.45;2.10;;;14.90;81.30;;;;;;5093151;28;20094;-90
2021/08/09 05:59:46;;;;;;;9.05;2.28;;;14.90;81.40;;;;;;5091886;28;20484;-87
2021/08/09 06:02:14;;;;;;;8.00;2.03;;;14.90;81.40;;;;;;5091236;28;20055;-87
2021/08/09 06:04:43;;;;;;;6.65;1.95;;;14.90;81.50;;;;;;5089570;28;20078;-89
2021/08/09 06:07:13;;;;;;;9.27;2.50;;;14.90;81.50;;;;;;5099617;28;20044;-88
2021/08/09 06:09:41;;;;;;;9.73;2.58;;;14.90;81.50;;;;;;5093114;28;20052;-86
2021/08/09 06:12:08;;;;;;;7.30;2.13;;;14.90;81.50;;;;;;5092340;28;20044;-86
2021/08/09 06:14:38;;;;;;;7.50;2.17;;;14.90;81.50;;;;;;5094727;28;20467;-86
2021/08/09 06:17:07;;;;;;;14.63;2.70;;;14.90;81.50;;;;;;5092719;28;20110;-87
2021/08/09 06:19:35;;;;;;;11.50;2.40;;;14.90;81.50;;;;;;5091539;28;20048;-89
2021/08/09 06:22:03;;;;;;;7.80;2.42;;;15.00;81.60;;;;;;5092533;28;20642;-88
2021/08/09 06:24:30;;;;;;;9.32;2.20;;;15.00;81.70;;;;;;5092926;28;20040;-88
2021/08/09 06:26:58;;;;;;;8.15;2.38;;;15.00;81.70;;;;;;5092786;28;20505;-87
2021/08/09 06:29:25;;;;;;;14.13;2.20;;;15.00;81.80;;;;;;5094744;28;20052;-88
2021/08/09 06:31:52;;;;;;;12.13;2.17;;;15.00;81.80;;;;;;5092564;28;20047;-86
2021/08/09 06:34:19;;;;;;;6.90;2.15;;;15.00;81.90;;;;;;5092017;28;20479;-87
2021/08/09 06:36:46;;;;;;;9.65;2.50;;;15.10;81.90;;;;;;5092829;28;20073;-88
2021/08/09 06:39:18;;;;;;;8.93;2.45;;;15.00;82.00;;;;;;5076724;28;20128;-88
2021/08/09 06:41:46;;;;;;;8.57;2.72;;;15.10;82.00;;;;;;5073867;28;20045;-87
2021/08/09 06:44:13;;;;;;;8.25;2.25;;;15.10;82.10;;;;;;5092290;28;20048;-91
2021/08/09 06:46:40;;;;;;;10.52;2.28;;;15.00;82.20;;;;;;5120768;27;20121;-90
2021/08/09 06:49:07;;;;;;;10.35;2.50;;;15.10;82.30;;;;;;5093625;28;20109;-90
2021/08/09 06:51:34;;;;;;;5.93;2.55;;;15.10;82.30;;;;;;5092717;28;20097;-90
2021/08/09 06:54:01;;;;;;;9.38;2.55;;;15.00;82.30;;;;;;5093719;28;20054;-89
2021/08/09 06:56:28;;;;;;;10.10;2.80;;;15.10;82.40;;;;;;5091761;28;20040;-89
2021/08/09 06:58:55;;;;;;;8.18;2.50;;;15.10;82.40;;;;;;5092133;28;20462;-89
2021/08/09 07:01:23;;;;;;;10.23;2.50;;;15.10;82.50;;;;;;5090745;28;20040;-90
2021/08/09 07:03:50;;;;;;;9.52;2.67;;;15.10;82.60;;;;;;5092057;28;20056;-89
2021/08/09 07:06:19;;;;;;;9.40;2.60;;;15.10;82.60;;;;;;5091036;28;20101;-88
2021/08/09 07:08:46;;;;;;;9.40;2.63;;;15.10;82.70;;;;;;5094463;28;20502;-90
2021/08/09 07:11:13;;;;;;;14.23;2.88;;;15.10;82.80;;;;;;5092013;28;20121;-90
2021/08/09 07:13:40;;;;;;;9.98;2.88;;;15.10;82.80;;;;;;5091961;28;20044;-88
2021/08/09 07:16:07;;;;;;;12.45;2.75;;;15.10;82.90;;;;;;5091986;28;20580;-88
2021/08/09 07:18:34;;;;;;;8.65;2.45;;;15.10;82.90;;;;;;5089963;28;20434;-87
2021/08/09 07:21:01;;;;;;;8.40;2.60;;;15.20;83.00;;;;;;5092577;28;20052;-88
2021/08/09 07:23:28;;;;;;;8.15;2.80;;;15.20;83.10;;;;;;5091609;28;20506;-88
2021/08/09 07:25:55;;;;;;;13.68;3.00;;;15.20;83.10;;;;;;5091212;28;20052;-86
2021/08/09 07:28:22;;;;;;;9.60;2.75;;;15.20;83.20;;;;;;5090311;28;20518;-88
2021/08/09 07:30:48;;;;;;;9.55;2.63;;;15.30;83.20;;;;;;5090772;28;20048;-87
2021/08/09 07:33:15;;;;;;;13.55;3.10;;;15.30;83.30;;;;;;5090386;28;20044;-88
2021/08/09 07:35:43;;;;;;;10.55;2.88;;;15.40;83.30;;;;;;5089319;28;20044;-87
2021/08/09 07:38:11;;;;;;;9.10;3.00;;;15.40;83.30;;;;;;5091275;28;20059;-87
2021/08/09 07:40:38;;;;;;;10.68;2.90;;;15.40;83.30;;;;;;5090805;28;20044;-89
2021/08/09 07:43:04;;;;;;;10.00;2.63;;;15.40;83.20;;;;;;5091142;28;20056;-88
2021/08/09 07:45:31;;;;;;;11.02;2.92;;;15.40;83.20;;;;;;5090187;28;20044;-88
2021/08/09 07:47:58;;;;;;;16.02;3.55;;;15.50;83.30;;;;;;5091084;28;20402;-87
2021/08/09 07:50:25;;;;;;;7.28;2.83;;;15.50;83.30;;;;;;5093071;28;20093;-89
2021/08/09 07:52:53;;;;;;;10.00;2.97;;;15.60;83.40;;;;;;5090664;28;20052;-88
2021/08/09 07:55:20;;;;;;;7.85;2.60;;;15.60;83.40;;;;;;5088739;28;20044;-89
2021/08/09 07:57:46;;;;;;;9.98;3.13;;;15.70;83.50;;;;;;5090710;28;20052;-88
2021/08/09 08:00:17;;;;;;;11.73;2.67;;;15.80;83.40;;;;;;5073978;28;20066;-89
2021/08/09 08:02:44;;;;;;;9.23;2.95;;;15.80;83.40;;;;;;5087561;28;20055;-90
2021/08/09 08:05:11;;;;;;;8.70;2.83;;;15.90;83.40;;;;;;5084238;28;20517;-88
2021/08/09 08:07:38;;;;;;;10.85;3.15;;;15.90;83.30;;;;;;5086046;28;20528;-88
2021/08/09 08:10:05;;;;;;;8.88;3.00;;;15.90;83.20;;;;;;5090365;28;20074;-89
2021/08/09 08:12:32;;;;;;;11.02;3.20;;;16.00;83.30;;;;;;5089075;28;20048;-90
2021/08/09 08:14:59;;;;;;;10.80;3.38;;;16.10;83.40;;;;;;5090978;28;20048;-89
2021/08/09 08:17:26;;;;;;;10.43;3.60;;;16.10;83.60;;;;;;5090371;28;20056;-86
2021/08/09 08:19:53;;;;;;;11.35;3.55;;;16.20;83.50;;;;;;5090666;28;20052;-89
2021/08/09 08:22:20;;;;;;;8.80;3.30;;;16.30;83.40;;;;;;5090231;28;20082;-87
2021/08/09 08:24:46;;;;;;;9.27;3.28;;;16.40;83.30;;;;;;5090264;28;20048;-87
2021/08/09 08:27:13;;;;;;;15.40;3.70;;;16.40;83.20;;;;;;5090200;28;20114;-89
2021/08/09 08:29:40;;;;;;;9.57;3.08;;;16.50;83.00;;;;;;5092335;28;20051;-88
2021/08/09 08:32:08;;;;;;;10.02;3.33;;;16.60;83.00;;;;;;5089973;28;20055;-87
2021/08/09 08:34:35;;;;;;;12.10;2.92;;;16.70;82.80;;;;;;5089234;28;20073;-86
2021/08/09 08:37:02;;;;;;;9.20;2.80;;;16.80;82.80;;;;;;5090011;28;20121;-89
2021/08/09 08:39:29;;;;;;;9.38;3.45;;;16.90;82.40;;;;;;5090883;28;20048;-89
2021/08/09 08:41:57;;;;;;;9.02;3.20;;;17.10;82.30;;;;;;5091446;28;20044;-88
2021/08/09 08:44:24;;;;;;;9.20;3.63;;;17.20;82.00;;;;;;5090064;28;20626;-88
2021/08/09 08:46:53;;;;;;;10.32;3.50;;;17.30;81.30;;;;;;5089954;28;20071;-87
2021/08/09 08:49:21;;;;;;;8.02;2.97;;;17.40;80.70;;;;;;5090145;28;20123;-86
2021/08/09 08:51:48;;;;;;;11.65;3.53;;;17.40;80.40;;;;;;5088711;28;20048;-89
2021/08/09 08:54:15;;;;;;;8.38;3.00;;;17.40;80.30;;;;;;5075461;28;20464;-90
2021/08/09 08:56:44;;;;;;;10.40;3.58;;;17.60;80.30;;;;;;5071103;28;20045;-88
2021/08/09 08:59:14;;;;;;;16.58;3.97;;;17.60;80.00;;;;;;5090938;28;20055;-88
2021/08/09 09:01:43;;;;;;;7.32;2.60;;;17.70;79.60;;;;;;5089629;28;20052;-87
2021/08/09 09:04:32;;;;;;;7.90;3.20;;;17.80;79.50;;;;;;5090084;28;20040;-88
2021/08/09 09:07:04;;;;;;;6.88;2.58;;;17.80;79.40;;;;;;5088834;28;20484;-88
2021/08/09 09:09:39;;;;;;;9.27;3.08;;;17.80;79.30;;;;;;5088533;28;20051;-89
2021/08/09 09:12:19;;;;;;;10.63;3.05;;;17.90;79.20;;;;;;5089985;28;20063;-89
2021/08/09 09:15:03;;;;;;;10.95;2.72;;;18.00;79.30;;;;;;5088103;28;20517;-89
2021/08/09 09:17:32;;;;;;;10.38;2.88;;;18.20;79.30;;;;;;5093879;28;20052;-87
2021/08/09 09:20:23;;;;;;;6.93;2.67;;;18.40;78.50;;;;;;5092283;28;20051;-89
2021/08/09 09:22:52;;;;;;;9.70;2.38;;;18.40;77.80;;;;;;5094199;28;20537;-89
2021/08/09 09:25:32;;;;;;;8.23;2.55;;;18.50;77.30;;;;;;5093494;28;20105;-89
2021/08/09 09:28:20;;;;;;;6.43;2.13;;;18.60;76.80;;;;;;5094094;28;20105;-87
2021/08/09 09:30:48;;;;;;;7.63;2.47;;;18.70;76.70;;;;;;5091194;28;20448;-88
2021/08/09 09:33:15;;;;;;;8.60;2.53;;;18.70;76.50;;;;;;5077632;28;20094;-87
2021/08/09 09:35:42;;;;;;;7.78;2.55;;;18.80;76.30;;;;;;5091076;28;20102;-87
2021/08/09 09:38:08;;;;;;;8.23;2.15;;;18.80;76.20;;;;;;5093674;28;20044;-88
2021/08/09 09:40:43;;;;;;;10.40;2.80;;;18.90;76.40;;;;;;5093170;28;20476;-86
2021/08/09 09:43:20;;;;;;;6.47;2.30;;;18.90;76.50;;;;;;5092214;28;20052;-89
2021/08/09 09:45:53;;;;;;;8.18;2.60;;;19.00;76.40;;;;;;5093608;28;20044;-89
2021/08/09 09:48:33;;;;;;;14.98;3.30;;;19.00;75.80;;;;;;5078309;28;20056;-88
2021/08/09 09:51:17;;;;;;;8.55;2.90;;;19.00;75.60;;;;;;5093588;28;20108;-89
2021/08/09 09:53:45;;;;;;;;;;;19.10;75.60;;;;;;5092160;28;20060;-89
2021/08/09 09:56:13;;;;;;;8.18;2.88;;;19.00;75.30;;;;;;5093917;28;19928;-88
2021/08/09 09:58:40;;;;;;;13.02;2.65;;;19.10;75.20;;;;;;5092016;28;20127;-88
2021/08/09 10:01:08;;;;;;;10.20;2.67;;;19.10;75.20;;;;;;5091248;28;20048;-90
2021/08/09 10:03:38;;;;;;;5.93;2.78;;;19.10;75.10;;;;;;5093065;28;20068;-87
2021/08/09 10:06:05;;;;;;;11.20;3.40;;;19.10;75.00;;;;;;5093261;28;20064;-88
2021/08/09 10:08:34;;;;;;;9.65;2.95;;;19.10;75.00;;;;;;5095001;28;20054;-86
2021/08/09 10:11:05;;;;;;;6.60;2.78;;;19.10;75.10;;;;;;5092305;28;20059;-88
2021/08/09 10:13:33;;;;;;;7.18;2.90;;;19.20;75.20;;;;;;5092697;28;20097;-88
2021/08/09 10:16:04;;;;;;;5.97;2.08;;;19.20;74.90;;;;;;5086886;28;20098;-89
2021/08/09 10:18:33;;;;;;;9.30;2.75;;;19.30;74.30;;;;;;5091654;28;20510;-91
2021/08/09 10:21:03;;;;;;;7.28;2.05;;;19.20;73.70;;;;;;5093771;28;20051;-89
2021/08/09 10:23:37;;;;;;;6.75;2.28;;;19.30;72.90;;;;;;5074599;28;20094;-89
2021/08/09 10:26:06;;;;;;;8.57;2.65;;;19.30;72.50;;;;;;5090144;28;20048;-89
2021/08/09 10:28:51;;;;;;;4.88;1.90;;;19.30;72.40;;;;;;5091977;28;20399;-88
2021/08/09 10:31:36;;;;;;;8.05;1.92;;;19.40;72.40;;;;;;5090845;28;20073;-90
2021/08/09 10:34:25;;;;;;;5.97;1.98;;;19.40;72.40;;;;;;5090806;28;20502;-89
2021/08/09 10:37:16;;;;;;;8.65;2.22;;;19.30;72.40;;;;;;5081160;28;20048;-90
2021/08/09 10:39:59;;;;;;;6.97;2.17;;;19.20;72.00;;;;;;5092412;28;20634;-88
2021/08/09 10:42:40;;;;;;;6.10;1.90;;;19.10;72.10;;;;;;5078368;28;20398;-90
2021/08/09 10:45:12;;;;;;;8.80;2.15;;;19.00;72.60;;;;;;5092289;28;20152;-87
2021/08/09 10:47:45;;;;;;;9.07;2.85;;;18.90;72.80;;;;;;5093359;28;20044;-87
2021/08/09 10:50:24;;;;;;;6.68;2.10;;;18.90;73.20;;;;;;5090211;28;20121;-90
2021/08/09 10:52:52;;;;;;;6.82;2.17;;;19.00;73.60;;;;;;5091310;28;20056;-91
2021/08/09 10:55:32;;;;;;;7.88;2.08;;;19.00;73.50;;;;;;5093245;28;20048;-90
2021/08/09 10:58:02;;;;;;;7.35;2.17;;;19.10;73.50;;;;;;5092498;28;20726;-90
2021/08/09 11:00:40;;;;;;;3.97;1.50;;;19.10;73.40;;;;;;5091907;28;20047;-90
2021/08/09 11:03:13;;;;;;;6.47;2.08;;;19.20;73.50;;;;;;5092004;28;20502;-92
2021/08/09 11:05:40;;;;;;;4.85;1.90;;;19.20;73.50;;;;;;5094418;28;20395;-90
2021/08/09 11:08:16;;;;;;;7.40;2.03;;;19.30;73.80;;;;;;5090428;28;20506;-88
2021/08/09 11:10:56;;;;;;;3.53;1.70;;;19.30;74.20;;;;;;5089184;28;20497;-90
2021/08/09 11:13:24;;;;;;;6.07;2.10;;;19.30;74.30;;;;;;5092025;28;20090;-90
2021/08/09 11:16:01;;;;;;;4.95;1.85;;;19.20;74.40;;;;;;5090143;28;20044;-89
2021/08/09 11:18:30;;;;;;;7.97;1.83;;;19.20;74.90;;;;;;5091954;28;20078;-88
2021/08/09 11:21:11;;;;;;;5.55;1.98;;;19.10;75.10;;;;;;5091050;28;20044;-87
2021/08/09 11:23:43;;;;;;;6.07;1.83;;;19.00;75.70;;;;;;5092850;28;20105;-88
2021/08/09 11:26:25;;;;;;;5.03;1.70;;;18.90;76.20;;;;;;5091635;28;20051;-88
2021/08/09 11:29:00;;;;;;;7.13;2.08;;;18.90;77.00;;;;;;5090259;28;20093;-88
2021/08/09 11:31:28;;;;;;;6.68;2.20;;;18.90;77.30;;;;;;5089524;28;20044;-89
2021/08/09 11:33:55;;;;;;;7.35;2.28;;;18.90;77.60;;;;;;5090546;28;20109;-89
2021/08/09 11:36:21;;;;;;;7.88;2.17;;;18.90;78.30;;;;;;5090519;28;20101;-93
2021/08/09 11:38:55;;;;;;;7.07;2.22;;;19.00;79.20;;;;;;5092848;28;20078;-85
2021/08/09 11:41:28;;;;;;;5.97;2.28;;;19.10;80.10;;;;;;5093339;28;20055;-90
2021/08/09 11:44:07;;;;;;;4.03;1.55;;;19.20;80.30;;;;;;5090570;28;20105;-90
2021/08/09 11:46:48;;;;;;;4.22;1.98;;;19.40;80.20;;;;;;5090855;28;20101;-90
2021/08/09 11:49:16;;;;;;;9.52;2.40;;;19.60;79.40;;;;;;5092112;28;20475;-92
2021/08/09 11:51:45;;;;;;;4.43;1.83;;;19.80;78.80;;;;;;5085845;28;20036;-91
2021/08/09 11:54:12;;;;;;;4.57;1.85;;;20.00;78.70;;;;;;5075165;28;20109;-89
2021/08/09 11:56:39;;;;;;;5.47;1.73;;;20.20;78.60;;;;;;5074088;28;20093;-88
2021/08/09 11:59:11;;;;;;;4.88;1.67;;;20.40;78.00;;;;;;5089626;28;20048;-90
2021/08/09 12:01:40;;;;;;;3.67;1.70;;;20.50;76.80;;;;;;5084559;28;20044;-91
2021/08/09 12:04:14;;;;;;;5.57;1.77;;;20.60;76.00;;;;;;5091481;28;20059;-90
2021/08/09 12:06:52;;;;;;;6.35;1.73;;;20.70;75.10;;;;;;5091207;28;20577;-91
2021/08/09 12:09:24;;;;;;;7.60;1.50;;;20.80;74.60;;;;;;5073255;28;20102;-89
2021/08/09 12:12:19;;;;;;;5.80;1.60;;;20.70;74.00;;;;;;5092945;28;20086;-90
2021/08/09 12:14:59;;;;;;;5.32;1.80;;;20.70;73.70;;;;;;5086681;28;20575;-89
2021/08/09 12:17:26;;;;;;;6.05;2.30;;;20.70;73.80;;;;;;5090891;28;20044;-89
2021/08/09 12:19:53;;;;;;;4.75;1.80;;;20.70;73.90;;;;;;5089128;28;20044;-91
2021/08/09 12:22:30;;;;;;;7.15;2.55;;;20.70;73.80;;;;;;5090498;28;20093;-91
2021/08/09 12:25:11;;;;;;;8.55;2.67;;;20.70;73.60;;;;;;5084963;28;20045;-91
2021/08/09 12:27:38;;;;;;;5.22;2.50;;;20.70;73.30;;;;;;5091120;28;20069;-89
2021/08/09 12:30:08;;;;;;;4.45;1.70;;;20.70;73.10;;;;;;5090570;28;20541;-90
2021/08/09 12:32:40;;;;;;;5.13;1.75;;;20.70;72.90;;;;;;5091996;28;20093;-90
2021/08/09 12:35:09;;;;;;;7.93;2.10;;;20.70;72.80;;;;;;5090568;28;20051;-90
2021/08/09 12:37:37;;;;;;;12.88;3.13;;;20.70;72.80;;;;;;5090609;28;20048;-89
2021/08/09 12:40:11;;;;;;;8.05;2.83;;;20.70;72.60;;;;;;5084802;28;20122;-90
2021/08/09 12:42:39;;;;;;;7.82;2.42;;;20.70;72.50;;;;;;5086972;28;20591;-90
2021/08/09 12:45:07;;;;;;;6.72;2.15;;;20.70;72.80;;;;;;5090861;28;20064;-91
2021/08/09 12:47:34;;;;;;;5.97;2.08;;;20.70;73.00;;;;;;5091893;28;20052;-92
2021/08/09 12:50:01;;;;;;;4.47;1.98;;;20.80;73.00;;;;;;5089959;28;20444;-91
2021/08/09 12:52:28;;;;;;;6.28;1.70;;;20.70;72.90;;;;;;5088750;28;20074;-91
2021/08/09 12:54:55;;;;;;;4.78;2.10;;;20.70;72.90;;;;;;5092008;28;20047;-91
2021/08/09 12:57:22;;;;;;;5.30;1.95;;;20.70;72.90;;;;;;5088639;28;20514;-92
2021/08/09 12:59:48;;;;;;;6.00;2.00;;;20.70;72.80;;;;;;5080011;28;20052;-92